sensor_id;sensor_type;location;lat;lon;timestamp;P1;durP1;ratioP1;P2;durP2;ratioP2
21243;SDS011;10780;50.942;4.028;2022-08-21T00:00:02;6.35;;;2.33;;
21243;SDS011;10780;50.942;4.028;2022-08-21T00:02:44;4.65;;;2.40;;
21243;SDS011;10780;50.942;4.028;2022-08-21T00:05:12;7.47;;;2.40;;
21243;SDS011;10780;50.942;4.028;2022-08-21T00:07:38;5.63;;;2.33;;
21243;SDS011;10780;50.942;4.028;2022-08-21T00:10:03;5.55;;;2.50;;
21243;SDS011;10780;50.942;4.028;2022-08-21T00:12:30;9.65;;;2.67;;
21243;SDS011;10780;50.942;4.028;2022-08-21T00:14:56;4.95;;;2.90;;
21243;SDS011;10780;50.942;4.028;2022-08-21T00:17:22;5.80;;;2.30;;
21243;SDS011;10780;50.942;4.028;2022-08-21T00:19:47;6.75;;;2.55;;
21243;SDS011;10780;50.942;4.028;2022-08-21T00:22:13;6.82;;;2.47;;
21243;SDS011;10780;50.942;4.028;2022-08-21T00:24:39;5.05;;;2.38;;
21243;SDS011;10780;50.942;4.028;2022-08-21T00:27:05;8.23;;;2.42;;
21243;SDS011;10780;50.942;4.028;2022-08-21T00:29:30;5.55;;;2.50;;
21243;SDS011;10780;50.942;4.028;2022-08-21T00:31:56;5.60;;;2.22;;
21243;SDS011;10780;50.942;4.028;2022-08-21T00:34:22;6.57;;;2.00;;
21243;SDS011;10780;50.942;4.028;2022-08-21T00:36:47;6.13;;;2.53;;
21243;SDS011;10780;50.942;4.028;2022-08-21T00:39:13;5.68;;;2.05;;
21243;SDS011;10780;50.942;4.028;2022-08-21T00:41:39;6.28;;;2.45;;
21243;SDS011;10780;50.942;4.028;2022-08-21T00:44:06;5.80;;;2.22;;
21243;SDS011;10780;50.942;4.028;2022-08-21T00:46:34;5.28;;;2.40;;
21243;SDS011;10780;50.942;4.028;2022-08-21T00:49:00;4.75;;;2.78;;
21243;SDS011;10780;50.942;4.028;2022-08-21T00:51:35;5.65;;;2.40;;
21243;SDS011;10780;50.942;4.028;2022-08-21T00:54:04;6.68;;;2.75;;
21243;SDS011;10780;50.942;4.028;2022-08-21T00:56:32;7.53;;;2.72;;
21243;SDS011;10780;50.942;4.028;2022-08-21T00:58:57;4.60;;;2.50;;
21243;SDS011;10780;50.942;4.028;2022-08-21T01:01:25;8.50;;;3.33;;
21243;SDS011;10780;50.942;4.028;2022-08-21T01:03:51;6.10;;;3.00;;
21243;SDS011;10780;50.942;4.028;2022-08-21T01:06:16;5.90;;;3.10;;
21243;SDS011;10780;50.942;4.028;2022-08-21T01:08:42;9.18;;;3.30;;
21243;SDS011;10780;50.942;4.028;2022-08-21T01:11:09;7.90;;;3.13;;
21243;SDS011;10780;50.942;4.028;2022-08-21T01:13:35;10.75;;;3.47;;
21243;SDS011;10780;50.942;4.028;2022-08-21T01:16:04;8.23;;;3.03;;
21243;SDS011;10780;50.942;4.028;2022-08-21T01:18:33;4.97;;;2.80;;
21243;SDS011;10780;50.942;4.028;2022-08-21T01:23:27;8.10;;;3.05;;
21243;SDS011;10780;50.942;4.028;2022-08-21T01:25:53;9.30;;;3.00;;
21243;SDS011;10780;50.942;4.028;2022-08-21T01:28:19;7.45;;;3.10;;
21243;SDS011;10780;50.942;4.028;2022-08-21T01:30:46;6.93;;;3.25;;
21243;SDS011;10780;50.942;4.028;2022-08-21T01:33:12;7.30;;;3.30;;
21243;SDS011;10780;50.942;4.028;2022-08-21T01:35:38;4.80;;;3.42;;
21243;SDS011;10780;50.942;4.028;2022-08-21T01:38:03;7.07;;;3.50;;
21243;SDS011;10780;50.942;4.028;2022-08-21T01:40:29;6.68;;;3.00;;
21243;SDS011;10780;50.942;4.028;2022-08-21T01:42:55;6.63;;;2.90;;
21243;SDS011;10780;50.942;4.028;2022-08-21T01:45:20;11.20;;;3.40;;
21243;SDS011;10780;50.942;4.028;2022-08-21T01:47:46;6.32;;;3.05;;
21243;SDS011;10780;50.942;4.028;2022-08-21T01:50:13;7.05;;;3.60;;
21243;SDS011;10780;50.942;4.028;2022-08-21T01:52:41;6.13;;;3.08;;
21243;SDS011;10780;50.942;4.028;2022-08-21T01:55:07;7.45;;;2.80;;
21243;SDS011;10780;50.942;4.028;2022-08-21T01:57:34;7.35;;;2.95;;
21243;SDS011;10780;50.942;4.028;2022-08-21T02:00:01;6.45;;;2.90;;
21243;SDS011;10780;50.942;4.028;2022-08-21T02:02:30;7.82;;;3.00;;
21243;SDS011;10780;50.942;4.028;2022-08-21T02:04:55;6.25;;;3.15;;
21243;SDS011;10780;50.942;4.028;2022-08-21T02:07:21;7.63;;;3.50;;
21243;SDS011;10780;50.942;4.028;2022-08-21T02:09:46;8.15;;;3.20;;
21243;SDS011;10780;50.942;4.028;2022-08-21T02:12:12;7.28;;;3.38;;
21243;SDS011;10780;50.942;4.028;2022-08-21T02:14:38;6.53;;;3.20;;
21243;SDS011;10780;50.942;4.028;2022-08-21T02:17:03;4.85;;;3.10;;
21243;SDS011;10780;50.942;4.028;2022-08-21T02:19:29;8.20;;;3.42;;
21243;SDS011;10780;50.942;4.028;2022-08-21T02:21:55;7.43;;;3.10;;
21243;SDS011;10780;50.942;4.028;2022-08-21T02:24:21;8.95;;;3.30;;
21243;SDS011;10780;50.942;4.028;2022-08-21T02:26:46;6.65;;;3.20;;
21243;SDS011;10780;50.942;4.028;2022-08-21T02:29:12;10.25;;;3.28;;
21243;SDS011;10780;50.942;4.028;2022-08-21T02:31:38;9.98;;;3.33;;
21243;SDS011;10780;50.942;4.028;2022-08-21T02:34:03;7.63;;;3.25;;
21243;SDS011;10780;50.942;4.028;2022-08-21T02:36:29;4.75;;;2.90;;
21243;SDS011;10780;50.942;4.028;2022-08-21T02:38:55;8.30;;;3.40;;
21243;SDS011;10780;50.942;4.028;2022-08-21T02:41:21;8.40;;;3.58;;
21243;SDS011;10780;50.942;4.028;2022-08-21T02:43:47;6.85;;;3.13;;
21243;SDS011;10780;50.942;4.028;2022-08-21T02:46:14;3.80;;;2.80;;
21243;SDS011;10780;50.942;4.028;2022-08-21T02:48:41;7.43;;;3.22;;
21243;SDS011;10780;50.942;4.028;2022-08-21T02:51:08;7.35;;;3.05;;
21243;SDS011;10780;50.942;4.028;2022-08-21T02:53:39;10.68;;;3.35;;
21243;SDS011;10780;50.942;4.028;2022-08-21T02:56:06;5.25;;;2.67;;
21243;SDS011;10780;50.942;4.028;2022-08-21T02:58:38;7.05;;;2.90;;
21243;SDS011;10780;50.942;4.028;2022-08-21T03:01:06;7.45;;;3.58;;
21243;SDS011;10780;50.942;4.028;2022-08-21T03:03:35;10.13;;;3.55;;
21243;SDS011;10780;50.942;4.028;2022-08-21T03:06:03;6.90;;;3.15;;
21243;SDS011;10780;50.942;4.028;2022-08-21T03:08:30;5.78;;;2.97;;
21243;SDS011;10780;50.942;4.028;2022-08-21T03:10:56;6.78;;;2.97;;
21243;SDS011;10780;50.942;4.028;2022-08-21T03:13:21;6.75;;;3.10;;
21243;SDS011;10780;50.942;4.028;2022-08-21T03:15:48;5.28;;;3.08;;
21243;SDS011;10780;50.942;4.028;2022-08-21T03:18:15;7.30;;;3.30;;
21243;SDS011;10780;50.942;4.028;2022-08-21T03:20:41;8.63;;;3.00;;
21243;SDS011;10780;50.942;4.028;2022-08-21T03:23:08;8.50;;;2.85;;
21243;SDS011;10780;50.942;4.028;2022-08-21T03:25:34;7.50;;;3.17;;
21243;SDS011;10780;50.942;4.028;2022-08-21T03:28:04;5.82;;;3.08;;
21243;SDS011;10780;50.942;4.028;2022-08-21T03:30:31;10.38;;;3.00;;
21243;SDS011;10780;50.942;4.028;2022-08-21T03:32:57;6.35;;;2.60;;
21243;SDS011;10780;50.942;4.028;2022-08-21T03:35:24;8.57;;;2.88;;
21243;SDS011;10780;50.942;4.028;2022-08-21T03:37:50;5.72;;;3.00;;
21243;SDS011;10780;50.942;4.028;2022-08-21T03:40:18;6.15;;;2.50;;
21243;SDS011;10780;50.942;4.028;2022-08-21T03:42:44;7.80;;;2.88;;
21243;SDS011;10780;50.942;4.028;2022-08-21T03:45:12;5.47;;;2.60;;
21243;SDS011;10780;50.942;4.028;2022-08-21T03:47:38;9.15;;;3.20;;
21243;SDS011;10780;50.942;4.028;2022-08-21T03:50:15;9.40;;;3.25;;
21243;SDS011;10780;50.942;4.028;2022-08-21T03:52:42;10.30;;;3.25;;
21243;SDS011;10780;50.942;4.028;2022-08-21T03:55:07;5.65;;;2.72;;
21243;SDS011;10780;50.942;4.028;2022-08-21T03:57:33;6.45;;;3.30;;
21243;SDS011;10780;50.942;4.028;2022-08-21T03:59:58;10.65;;;3.60;;
21243;SDS011;10780;50.942;4.028;2022-08-21T04:02:24;7.45;;;3.40;;
21243;SDS011;10780;50.942;4.028;2022-08-21T04:04:50;5.95;;;3.33;;
21243;SDS011;10780;50.942;4.028;2022-08-21T04:07:15;9.10;;;3.40;;
21243;SDS011;10780;50.942;4.028;2022-08-21T04:09:42;8.65;;;3.28;;
21243;SDS011;10780;50.942;4.028;2022-08-21T04:12:08;7.45;;;3.35;;
21243;SDS011;10780;50.942;4.028;2022-08-21T04:14:34;5.55;;;3.20;;
21243;SDS011;10780;50.942;4.028;2022-08-21T04:16:59;8.52;;;3.00;;
21243;SDS011;10780;50.942;4.028;2022-08-21T04:19:25;5.82;;;3.25;;
21243;SDS011;10780;50.942;4.028;2022-08-21T04:21:51;5.40;;;3.22;;
21243;SDS011;10780;50.942;4.028;2022-08-21T04:24:17;8.00;;;3.33;;
21243;SDS011;10780;50.942;4.028;2022-08-21T04:26:42;8.80;;;3.15;;
21243;SDS011;10780;50.942;4.028;2022-08-21T04:29:08;4.65;;;3.20;;
21243;SDS011;10780;50.942;4.028;2022-08-21T04:31:34;6.30;;;3.30;;
21243;SDS011;10780;50.942;4.028;2022-08-21T04:34:02;5.13;;;3.50;;
21243;SDS011;10780;50.942;4.028;2022-08-21T04:36:29;7.72;;;3.63;;
21243;SDS011;10780;50.942;4.028;2022-08-21T04:38:56;6.32;;;2.85;;
21243;SDS011;10780;50.942;4.028;2022-08-21T04:41:21;5.93;;;2.90;;
21243;SDS011;10780;50.942;4.028;2022-08-21T04:43:47;9.43;;;2.97;;
21243;SDS011;10780;50.942;4.028;2022-08-21T04:46:12;6.18;;;3.03;;
21243;SDS011;10780;50.942;4.028;2022-08-21T04:48:38;6.80;;;3.17;;
21243;SDS011;10780;50.942;4.028;2022-08-21T04:56:24;7.80;;;2.92;;
21243;SDS011;10780;50.942;4.028;2022-08-21T04:58:53;10.02;;;3.30;;
21243;SDS011;10780;50.942;4.028;2022-08-21T05:01:22;6.93;;;2.67;;
21243;SDS011;10780;50.942;4.028;2022-08-21T05:03:52;8.90;;;3.83;;
21243;SDS011;10780;50.942;4.028;2022-08-21T05:06:21;7.00;;;3.30;;
21243;SDS011;10780;50.942;4.028;2022-08-21T05:08:48;4.95;;;3.10;;
21243;SDS011;10780;50.942;4.028;2022-08-21T05:11:15;6.53;;;3.35;;
21243;SDS011;10780;50.942;4.028;2022-08-21T05:13:41;8.85;;;4.03;;
21243;SDS011;10780;50.942;4.028;2022-08-21T05:16:07;8.23;;;2.88;;
21243;SDS011;10780;50.942;4.028;2022-08-21T05:18:33;6.85;;;3.15;;
21243;SDS011;10780;50.942;4.028;2022-08-21T05:20:58;9.57;;;3.33;;
21243;SDS011;10780;50.942;4.028;2022-08-21T05:23:24;7.20;;;3.00;;
21243;SDS011;10780;50.942;4.028;2022-08-21T05:25:51;7.40;;;3.17;;
21243;SDS011;10780;50.942;4.028;2022-08-21T05:28:17;7.68;;;2.67;;
21243;SDS011;10780;50.942;4.028;2022-08-21T05:30:43;7.53;;;3.08;;
21243;SDS011;10780;50.942;4.028;2022-08-21T05:33:09;6.22;;;3.10;;
21243;SDS011;10780;50.942;4.028;2022-08-21T05:35:35;5.95;;;3.13;;
21243;SDS011;10780;50.942;4.028;2022-08-21T05:38:01;6.22;;;2.85;;
21243;SDS011;10780;50.942;4.028;2022-08-21T05:40:27;7.13;;;3.65;;
21243;SDS011;10780;50.942;4.028;2022-08-21T05:42:53;6.35;;;3.30;;
21243;SDS011;10780;50.942;4.028;2022-08-21T05:45:20;5.53;;;3.00;;
21243;SDS011;10780;50.942;4.028;2022-08-21T05:47:46;10.13;;;3.38;;
21243;SDS011;10780;50.942;4.028;2022-08-21T05:50:11;11.02;;;3.13;;
21243;SDS011;10780;50.942;4.028;2022-08-21T05:52:37;5.32;;;2.90;;
21243;SDS011;10780;50.942;4.028;2022-08-21T05:55:03;5.65;;;3.08;;
21243;SDS011;10780;50.942;4.028;2022-08-21T05:57:29;6.68;;;3.22;;
21243;SDS011;10780;50.942;4.028;2022-08-21T05:59:55;7.03;;;3.05;;
21243;SDS011;10780;50.942;4.028;2022-08-21T06:02:21;7.90;;;2.97;;
21243;SDS011;10780;50.942;4.028;2022-08-21T06:04:47;7.72;;;2.92;;
21243;SDS011;10780;50.942;4.028;2022-08-21T06:07:13;6.72;;;3.05;;
21243;SDS011;10780;50.942;4.028;2022-08-21T06:09:39;8.82;;;2.97;;
21243;SDS011;10780;50.942;4.028;2022-08-21T06:12:06;6.00;;;2.92;;
21243;SDS011;10780;50.942;4.028;2022-08-21T06:14:34;9.82;;;2.83;;
21243;SDS011;10780;50.942;4.028;2022-08-21T06:17:04;6.88;;;2.70;;
21243;SDS011;10780;50.942;4.028;2022-08-21T06:19:30;8.02;;;3.28;;
21243;SDS011;10780;50.942;4.028;2022-08-21T06:21:59;8.30;;;2.58;;
21243;SDS011;10780;50.942;4.028;2022-08-21T06:24:24;6.20;;;2.50;;
21243;SDS011;10780;50.942;4.028;2022-08-21T06:26:50;6.13;;;2.40;;
21243;SDS011;10780;50.942;4.028;2022-08-21T06:29:16;6.18;;;2.33;;
21243;SDS011;10780;50.942;4.028;2022-08-21T06:31:42;6.32;;;2.35;;
21243;SDS011;10780;50.942;4.028;2022-08-21T06:34:08;6.47;;;2.42;;
21243;SDS011;10780;50.942;4.028;2022-08-21T06:36:35;6.25;;;2.03;;
21243;SDS011;10780;50.942;4.028;2022-08-21T06:39:01;7.82;;;2.20;;
21243;SDS011;10780;50.942;4.028;2022-08-21T06:41:26;10.00;;;2.35;;
21243;SDS011;10780;50.942;4.028;2022-08-21T06:43:53;4.45;;;2.20;;
21243;SDS011;10780;50.942;4.028;2022-08-21T06:46:19;8.68;;;2.25;;
21243;SDS011;10780;50.942;4.028;2022-08-21T06:48:45;7.68;;;1.98;;
21243;SDS011;10780;50.942;4.028;2022-08-21T06:51:11;8.15;;;2.20;;
21243;SDS011;10780;50.942;4.028;2022-08-21T06:53:37;7.30;;;2.30;;
21243;SDS011;10780;50.942;4.028;2022-08-21T06:56:03;7.90;;;2.78;;
21243;SDS011;10780;50.942;4.028;2022-08-21T06:58:29;6.22;;;1.98;;
21243;SDS011;10780;50.942;4.028;2022-08-21T07:00:55;6.28;;;2.25;;
21243;SDS011;10780;50.942;4.028;2022-08-21T07:03:22;5.53;;;2.00;;
21243;SDS011;10780;50.942;4.028;2022-08-21T07:05:50;7.88;;;2.42;;
21243;SDS011;10780;50.942;4.028;2022-08-21T07:08:19;8.10;;;2.30;;
21243;SDS011;10780;50.942;4.028;2022-08-21T07:10:45;8.27;;;2.20;;
21243;SDS011;10780;50.942;4.028;2022-08-21T07:13:12;9.20;;;2.40;;
21243;SDS011;10780;50.942;4.028;2022-08-21T07:15:38;9.52;;;2.45;;
21243;SDS011;10780;50.942;4.028;2022-08-21T07:18:04;9.20;;;2.03;;
21243;SDS011;10780;50.942;4.028;2022-08-21T07:20:30;9.07;;;2.80;;
21243;SDS011;10780;50.942;4.028;2022-08-21T07:22:58;6.30;;;2.22;;
21243;SDS011;10780;50.942;4.028;2022-08-21T07:25:26;5.78;;;2.45;;
21243;SDS011;10780;50.942;4.028;2022-08-21T07:27:51;10.60;;;3.05;;
21243;SDS011;10780;50.942;4.028;2022-08-21T07:30:17;7.18;;;2.50;;
21243;SDS011;10780;50.942;4.028;2022-08-21T07:32:43;9.02;;;2.60;;
21243;SDS011;10780;50.942;4.028;2022-08-21T07:35:08;6.57;;;2.05;;
21243;SDS011;10780;50.942;4.028;2022-08-21T07:37:34;9.05;;;2.30;;
21243;SDS011;10780;50.942;4.028;2022-08-21T07:40:00;9.27;;;2.10;;
21243;SDS011;10780;50.942;4.028;2022-08-21T07:42:25;4.97;;;2.10;;
21243;SDS011;10780;50.942;4.028;2022-08-21T07:44:51;8.77;;;2.20;;
21243;SDS011;10780;50.942;4.028;2022-08-21T07:47:17;9.13;;;2.35;;
21243;SDS011;10780;50.942;4.028;2022-08-21T07:49:42;10.15;;;2.30;;
21243;SDS011;10780;50.942;4.028;2022-08-21T07:52:08;7.47;;;2.30;;
21243;SDS011;10780;50.942;4.028;2022-08-21T07:54:33;8.10;;;2.10;;
21243;SDS011;10780;50.942;4.028;2022-08-21T07:56:59;5.97;;;1.98;;
21243;SDS011;10780;50.942;4.028;2022-08-21T07:59:25;9.43;;;2.40;;
21243;SDS011;10780;50.942;4.028;2022-08-21T08:01:51;7.05;;;2.22;;
21243;SDS011;10780;50.942;4.028;2022-08-21T08:04:16;5.53;;;2.20;;
21243;SDS011;10780;50.942;4.028;2022-08-21T08:06:42;9.13;;;2.50;;
21243;SDS011;10780;50.942;4.028;2022-08-21T08:09:08;7.38;;;2.17;;
21243;SDS011;10780;50.942;4.028;2022-08-21T08:11:34;5.35;;;2.03;;
21243;SDS011;10780;50.942;4.028;2022-08-21T08:14:02;8.65;;;1.92;;
21243;SDS011;10780;50.942;4.028;2022-08-21T08:16:29;6.65;;;2.03;;
21243;SDS011;10780;50.942;4.028;2022-08-21T08:18:54;7.80;;;2.22;;
21243;SDS011;10780;50.942;4.028;2022-08-21T08:21:20;5.97;;;1.98;;
21243;SDS011;10780;50.942;4.028;2022-08-21T08:23:46;6.47;;;2.15;;
21243;SDS011;10780;50.942;4.028;2022-08-21T08:26:12;6.22;;;1.80;;
21243;SDS011;10780;50.942;4.028;2022-08-21T08:28:38;6.68;;;2.00;;
21243;SDS011;10780;50.942;4.028;2022-08-21T08:31:03;5.80;;;2.45;;
21243;SDS011;10780;50.942;4.028;2022-08-21T08:33:29;6.85;;;2.15;;
21243;SDS011;10780;50.942;4.028;2022-08-21T08:35:55;10.63;;;2.40;;
21243;SDS011;10780;50.942;4.028;2022-08-21T08:38:21;6.90;;;2.20;;
21243;SDS011;10780;50.942;4.028;2022-08-21T08:41:02;7.35;;;2.10;;
21243;SDS011;10780;50.942;4.028;2022-08-21T08:43:30;6.10;;;1.98;;
21243;SDS011;10780;50.942;4.028;2022-08-21T08:45:58;9.48;;;2.15;;
21243;SDS011;10780;50.942;4.028;2022-08-21T08:51:02;7.28;;;2.67;;
21243;SDS011;10780;50.942;4.028;2022-08-21T08:53:33;8.13;;;2.33;;
21243;SDS011;10780;50.942;4.028;2022-08-21T08:56:09;7.65;;;1.90;;
21243;SDS011;10780;50.942;4.028;2022-08-21T08:58:37;9.77;;;2.28;;
21243;SDS011;10780;50.942;4.028;2022-08-21T09:01:06;6.53;;;2.28;;
21243;SDS011;10780;50.942;4.028;2022-08-21T09:03:42;9.98;;;2.28;;
21243;SDS011;10780;50.942;4.028;2022-08-21T09:11:54;10.77;;;3.30;;
21243;SDS011;10780;50.942;4.028;2022-08-21T09:28:15;6.75;;;1.92;;
21243;SDS011;10780;50.942;4.028;2022-08-21T09:30:41;7.68;;;2.17;;
21243;SDS011;10780;50.942;4.028;2022-08-21T09:33:07;6.80;;;2.08;;
21243;SDS011;10780;50.942;4.028;2022-08-21T09:35:36;10.45;;;2.35;;
21243;SDS011;10780;50.942;4.028;2022-08-21T09:38:22;7.22;;;2.20;;
21243;SDS011;10780;50.942;4.028;2022-08-21T09:41:02;6.18;;;2.30;;
21243;SDS011;10780;50.942;4.028;2022-08-21T09:43:30;8.15;;;2.10;;
21243;SDS011;10780;50.942;4.028;2022-08-21T09:48:47;8.43;;;2.15;;
21243;SDS011;10780;50.942;4.028;2022-08-21T09:51:36;8.13;;;2.45;;
21243;SDS011;10780;50.942;4.028;2022-08-21T09:56:31;5.45;;;2.15;;
21243;SDS011;10780;50.942;4.028;2022-08-21T09:59:26;5.32;;;1.90;;
21243;SDS011;10780;50.942;4.028;2022-08-21T10:01:57;6.82;;;2.20;;
21243;SDS011;10780;50.942;4.028;2022-08-21T10:04:29;6.03;;;2.30;;
21243;SDS011;10780;50.942;4.028;2022-08-21T10:07:09;8.00;;;2.20;;
21243;SDS011;10780;50.942;4.028;2022-08-21T10:09:37;7.30;;;2.20;;
21243;SDS011;10780;50.942;4.028;2022-08-21T10:12:19;6.13;;;2.22;;
21243;SDS011;10780;50.942;4.028;2022-08-21T10:17:33;9.07;;;2.08;;
21243;SDS011;10780;50.942;4.028;2022-08-21T10:20:22;9.35;;;2.30;;
21243;SDS011;10780;50.942;4.028;2022-08-21T10:28:00;8.07;;;2.60;;
21243;SDS011;10780;50.942;4.028;2022-08-21T10:36:22;9.88;;;2.33;;
21243;SDS011;10780;50.942;4.028;2022-08-21T10:39:07;7.63;;;2.33;;
21243;SDS011;10780;50.942;4.028;2022-08-21T10:47:28;7.75;;;2.72;;
21243;SDS011;10780;50.942;4.028;2022-08-21T10:50:11;8.82;;;2.33;;
21243;SDS011;10780;50.942;4.028;2022-08-21T10:55:43;7.38;;;2.00;;
21243;SDS011;10780;50.942;4.028;2022-08-21T10:58:36;9.02;;;2.83;;
21243;SDS011;10780;50.942;4.028;2022-08-21T11:01:12;6.85;;;2.25;;
21243;SDS011;10780;50.942;4.028;2022-08-21T11:03:43;6.38;;;2.30;;
21243;SDS011;10780;50.942;4.028;2022-08-21T11:06:19;9.65;;;3.22;;
21243;SDS011;10780;50.942;4.028;2022-08-21T11:08:51;7.57;;;2.70;;
21243;SDS011;10780;50.942;4.028;2022-08-21T11:11:29;7.43;;;2.30;;
21243;SDS011;10780;50.942;4.028;2022-08-21T11:14:01;7.15;;;2.63;;
21243;SDS011;10780;50.942;4.028;2022-08-21T11:16:40;8.57;;;2.95;;
21243;SDS011;10780;50.942;4.028;2022-08-21T11:19:17;9.75;;;2.50;;
21243;SDS011;10780;50.942;4.028;2022-08-21T11:21:53;9.70;;;2.60;;
21243;SDS011;10780;50.942;4.028;2022-08-21T11:24:52;9.80;;;2.88;;
21243;SDS011;10780;50.942;4.028;2022-08-21T11:30:04;9.15;;;2.25;;
21243;SDS011;10780;50.942;4.028;2022-08-21T11:54:47;11.15;;;2.55;;
21243;SDS011;10780;50.942;4.028;2022-08-21T11:57:50;6.18;;;2.53;;
21243;SDS011;10780;50.942;4.028;2022-08-21T12:00:19;7.53;;;3.17;;
21243;SDS011;10780;50.942;4.028;2022-08-21T12:02:58;7.10;;;2.17;;
21243;SDS011;10780;50.942;4.028;2022-08-21T12:05:40;8.93;;;2.42;;
21243;SDS011;10780;50.942;4.028;2022-08-21T12:10:36;5.95;;;2.13;;
21243;SDS011;10780;50.942;4.028;2022-08-21T12:13:20;7.78;;;2.25;;
21243;SDS011;10780;50.942;4.028;2022-08-21T12:16:11;10.23;;;2.38;;
21243;SDS011;10780;50.942;4.028;2022-08-21T12:19:02;4.65;;;1.80;;
21243;SDS011;10780;50.942;4.028;2022-08-21T12:21:29;10.20;;;2.20;;
21243;SDS011;10780;50.942;4.028;2022-08-21T12:29:28;8.20;;;2.30;;
21243;SDS011;10780;50.942;4.028;2022-08-21T12:34:34;4.47;;;2.20;;
21243;SDS011;10780;50.942;4.028;2022-08-21T12:37:04;5.70;;;2.30;;
21243;SDS011;10780;50.942;4.028;2022-08-21T12:39:46;5.30;;;2.00;;
21243;SDS011;10780;50.942;4.028;2022-08-21T12:42:24;7.05;;;2.33;;
21243;SDS011;10780;50.942;4.028;2022-08-21T12:45:00;5.95;;;2.53;;
21243;SDS011;10780;50.942;4.028;2022-08-21T12:47:47;7.35;;;2.47;;
21243;SDS011;10780;50.942;4.028;2022-08-21T12:50:39;7.55;;;2.50;;
21243;SDS011;10780;50.942;4.028;2022-08-21T12:53:09;7.60;;;2.42;;
21243;SDS011;10780;50.942;4.028;2022-08-21T12:55:42;6.53;;;2.28;;
21243;SDS011;10780;50.942;4.028;2022-08-21T12:58:21;8.48;;;2.58;;
21243;SDS011;10780;50.942;4.028;2022-08-21T13:01:02;6.15;;;2.85;;
21243;SDS011;10780;50.942;4.028;2022-08-21T13:03:28;6.05;;;2.00;;
21243;SDS011;10780;50.942;4.028;2022-08-21T13:05:55;8.23;;;2.33;;
21243;SDS011;10780;50.942;4.028;2022-08-21T13:08:23;7.40;;;2.60;;
21243;SDS011;10780;50.942;4.028;2022-08-21T13:10:55;9.07;;;2.42;;
21243;SDS011;10780;50.942;4.028;2022-08-21T13:13:27;9.00;;;2.53;;
21243;SDS011;10780;50.942;4.028;2022-08-21T13:15:58;8.88;;;2.58;;
21243;SDS011;10780;50.942;4.028;2022-08-21T13:18:27;7.22;;;2.50;;
21243;SDS011;10780;50.942;4.028;2022-08-21T13:21:04;8.57;;;2.50;;
21243;SDS011;10780;50.942;4.028;2022-08-21T13:23:38;5.82;;;2.60;;
21243;SDS011;10780;50.942;4.028;2022-08-21T13:26:18;7.40;;;2.30;;
21243;SDS011;10780;50.942;4.028;2022-08-21T13:28:46;6.13;;;2.15;;
21243;SDS011;10780;50.942;4.028;2022-08-21T13:31:15;8.30;;;2.80;;
21243;SDS011;10780;50.942;4.028;2022-08-21T13:33:46;8.18;;;2.55;;
21243;SDS011;10780;50.942;4.028;2022-08-21T13:36:16;5.80;;;2.25;;
21243;SDS011;10780;50.942;4.028;2022-08-21T13:38:48;5.88;;;2.40;;
21243;SDS011;10780;50.942;4.028;2022-08-21T13:43:44;7.78;;;2.92;;
21243;SDS011;10780;50.942;4.028;2022-08-21T13:46:31;9.05;;;2.67;;
21243;SDS011;10780;50.942;4.028;2022-08-21T13:48:59;8.43;;;2.40;;
21243;SDS011;10780;50.942;4.028;2022-08-21T13:51:28;9.82;;;2.38;;
21243;SDS011;10780;50.942;4.028;2022-08-21T13:53:56;7.00;;;2.17;;
21243;SDS011;10780;50.942;4.028;2022-08-21T13:58:56;4.88;;;1.90;;
21243;SDS011;10780;50.942;4.028;2022-08-21T14:01:25;7.65;;;2.20;;
21243;SDS011;10780;50.942;4.028;2022-08-21T14:03:54;7.45;;;2.78;;
21243;SDS011;10780;50.942;4.028;2022-08-21T14:06:25;11.07;;;2.45;;
21243;SDS011;10780;50.942;4.028;2022-08-21T14:08:56;6.97;;;2.30;;
21243;SDS011;10780;50.942;4.028;2022-08-21T14:11:26;7.47;;;2.08;;
21243;SDS011;10780;50.942;4.028;2022-08-21T14:16:21;8.60;;;2.50;;
21243;SDS011;10780;50.942;4.028;2022-08-21T14:21:28;8.77;;;2.78;;
21243;SDS011;10780;50.942;4.028;2022-08-21T14:24:07;5.93;;;2.58;;
21243;SDS011;10780;50.942;4.028;2022-08-21T14:26:45;8.32;;;2.80;;
21243;SDS011;10780;50.942;4.028;2022-08-21T14:29:15;7.63;;;2.53;;
21243;SDS011;10780;50.942;4.028;2022-08-21T14:31:42;12.48;;;2.88;;
21243;SDS011;10780;50.942;4.028;2022-08-21T14:34:09;7.82;;;2.03;;
21243;SDS011;10780;50.942;4.028;2022-08-21T14:36:37;6.90;;;2.45;;
21243;SDS011;10780;50.942;4.028;2022-08-21T14:39:03;7.78;;;2.55;;
21243;SDS011;10780;50.942;4.028;2022-08-21T14:41:29;10.45;;;2.80;;
21243;SDS011;10780;50.942;4.028;2022-08-21T14:43:55;8.07;;;2.72;;
21243;SDS011;10780;50.942;4.028;2022-08-21T14:46:23;8.07;;;2.92;;
21243;SDS011;10780;50.942;4.028;2022-08-21T14:48:51;7.20;;;2.45;;
21243;SDS011;10780;50.942;4.028;2022-08-21T14:51:17;8.07;;;2.25;;
21243;SDS011;10780;50.942;4.028;2022-08-21T14:53:43;6.10;;;2.50;;
21243;SDS011;10780;50.942;4.028;2022-08-21T14:56:09;7.63;;;2.35;;
21243;SDS011;10780;50.942;4.028;2022-08-21T14:58:46;6.93;;;2.40;;
21243;SDS011;10780;50.942;4.028;2022-08-21T15:01:15;5.57;;;2.35;;
21243;SDS011;10780;50.942;4.028;2022-08-21T15:03:43;7.72;;;2.55;;
21243;SDS011;10780;50.942;4.028;2022-08-21T15:06:09;7.47;;;2.38;;
21243;SDS011;10780;50.942;4.028;2022-08-21T15:08:35;7.65;;;2.15;;
21243;SDS011;10780;50.942;4.028;2022-08-21T15:11:02;5.88;;;2.70;;
21243;SDS011;10780;50.942;4.028;2022-08-21T15:13:29;5.60;;;2.35;;
21243;SDS011;10780;50.942;4.028;2022-08-21T15:15:55;7.55;;;2.33;;
21243;SDS011;10780;50.942;4.028;2022-08-21T15:18:22;8.52;;;2.20;;
21243;SDS011;10780;50.942;4.028;2022-08-21T15:20:50;10.75;;;2.72;;
21243;SDS011;10780;50.942;4.028;2022-08-21T15:23:15;9.00;;;2.90;;
21243;SDS011;10780;50.942;4.028;2022-08-21T15:25:42;7.50;;;2.63;;
21243;SDS011;10780;50.942;4.028;2022-08-21T15:28:09;6.32;;;2.28;;
21243;SDS011;10780;50.942;4.028;2022-08-21T15:30:36;4.95;;;1.95;;
21243;SDS011;10780;50.942;4.028;2022-08-21T15:33:03;7.15;;;2.38;;
21243;SDS011;10780;50.942;4.028;2022-08-21T15:35:30;8.57;;;2.35;;
21243;SDS011;10780;50.942;4.028;2022-08-21T15:37:55;4.28;;;2.00;;
21243;SDS011;10780;50.942;4.028;2022-08-21T15:40:21;9.55;;;3.05;;
21243;SDS011;10780;50.942;4.028;2022-08-21T15:42:47;8.95;;;2.38;;
21243;SDS011;10780;50.942;4.028;2022-08-21T15:45:13;9.55;;;2.65;;
21243;SDS011;10780;50.942;4.028;2022-08-21T15:47:42;7.70;;;2.08;;
21243;SDS011;10780;50.942;4.028;2022-08-21T15:50:09;6.35;;;2.40;;
21243;SDS011;10780;50.942;4.028;2022-08-21T15:52:36;8.57;;;2.30;;
21243;SDS011;10780;50.942;4.028;2022-08-21T15:55:03;6.00;;;2.10;;
21243;SDS011;10780;50.942;4.028;2022-08-21T15:57:29;6.30;;;2.30;;
21243;SDS011;10780;50.942;4.028;2022-08-21T15:59:59;5.10;;;2.10;;
21243;SDS011;10780;50.942;4.028;2022-08-21T16:02:36;9.65;;;3.30;;
21243;SDS011;10780;50.942;4.028;2022-08-21T16:05:02;6.10;;;2.30;;
21243;SDS011;10780;50.942;4.028;2022-08-21T16:07:28;6.88;;;2.22;;
21243;SDS011;10780;50.942;4.028;2022-08-21T16:09:53;10.20;;;2.88;;
21243;SDS011;10780;50.942;4.028;2022-08-21T16:12:20;6.93;;;2.38;;
21243;SDS011;10780;50.942;4.028;2022-08-21T16:14:50;8.82;;;2.42;;
21243;SDS011;10780;50.942;4.028;2022-08-21T16:17:17;5.93;;;2.20;;
21243;SDS011;10780;50.942;4.028;2022-08-21T16:19:43;7.82;;;2.60;;
21243;SDS011;10780;50.942;4.028;2022-08-21T16:22:09;7.35;;;2.63;;
21243;SDS011;10780;50.942;4.028;2022-08-21T16:24:34;9.38;;;3.15;;
21243;SDS011;10780;50.942;4.028;2022-08-21T16:27:00;8.57;;;2.28;;
21243;SDS011;10780;50.942;4.028;2022-08-21T16:29:28;6.82;;;2.40;;
21243;SDS011;10780;50.942;4.028;2022-08-21T16:31:58;5.45;;;2.40;;
21243;SDS011;10780;50.942;4.028;2022-08-21T16:34:24;7.30;;;2.60;;
21243;SDS011;10780;50.942;4.028;2022-08-21T16:36:50;4.57;;;2.03;;
21243;SDS011;10780;50.942;4.028;2022-08-21T16:39:15;6.78;;;2.60;;